McEwen, Tennessee
Current Conditions -  °F | °C
As of 7:52 AM on Wednesday 28 Jan 2015 (Local Time) from KCKV Reporting Station
Overcast Overcast  
Wind Chill: 24°   Ceiling: 1700
Heat Index: 32°   Visibility: 10mi
Dew Point: 26°   Wind: 9mph
Humidity: 79%   Direction: 120°ESE
Pressure: 30.34"   Gusts: NA
Location:  36.11°N, 87.63°W
Report Text: KCKV 281352Z AUTO 12008KT 10SM OVC017 00/M03 A3034 RMK AO2 SLP276 T00001033
Loading
Personal Weather Stations






























Interactive Weather Map New forecast layout! Learn more

10-Day Weather Forecast

Advertisements
Track Severe Weather on mobile